Time;durP1;ratioP1;P1;durP2;ratioP2;P2;SDS_P1;SDS_P2;PMS_P1;PMS_P2;Temp;Humidity;BMP_temperature;BMP_pressure;BME280_temperature;BME280_humidity;BME280_pressure;Samples;Min_cycle;Max_cycle;Signal;HPM_P1;HPM_P2
2023/06/29 00:01:31;;;;;;;0.40;0.40;;;;;;;18.27;100.00;99371.94;5071153;28;20216;-62
2023/06/29 00:03:58;;;;;;;0.60;0.60;;;;;;;18.31;100.00;99378.63;5071205;28;20192;-62
2023/06/29 00:06:27;;;;;;;0.30;0.30;;;;;;;18.31;100.00;99378.63;5071211;28;20203;-62
2023/06/29 00:08:54;;;;;;;0.57;0.57;;;;;;;18.36;100.00;99377.38;5071148;28;20236;-62
2023/06/29 00:11:22;;;;;;;0.60;0.60;;;;;;;18.29;100.00;99368.31;5071160;28;20196;-62
2023/06/29 00:13:48;;;;;;;0.40;0.40;;;;;;;18.25;100.00;99374.63;5071072;28;20203;-62
2023/06/29 00:16:16;;;;;;;0.50;0.50;;;;;;;18.20;100.00;99370.63;5071296;28;20200;-62
2023/06/29 00:18:43;;;;;;;0.50;0.50;;;;;;;18.13;100.00;99366.75;5070913;28;20262;-62
2023/06/29 00:21:10;;;;;;;0.50;0.50;;;;;;;18.09;100.00;99384.28;5070830;28;20212;-62
2023/06/29 00:23:38;;;;;;;0.47;0.47;;;;;;;17.98;100.00;99381.50;5070623;28;20265;-62
2023/06/29 00:26:05;;;;;;;0.50;0.50;;;;;;;17.85;100.00;99380.56;5071040;28;20196;-62
2023/06/29 00:28:32;;;;;;;0.53;0.53;;;;;;;17.66;100.00;99396.41;5071052;28;20569;-62
2023/06/29 00:30:58;;;;;;;0.30;0.30;;;;;;;17.58;100.00;99396.00;5071078;28;20203;-62
2023/06/29 00:33:25;;;;;;;0.80;0.80;;;;;;;17.73;100.00;99402.06;5071093;28;20196;-62
2023/06/29 00:35:52;;;;;;;0.50;0.50;;;;;;;17.66;100.00;99404.19;5070889;28;20195;-62
2023/06/29 00:38:19;;;;;;;0.70;0.70;;;;;;;17.62;100.00;99394.91;5070816;28;20200;-62
2023/06/29 00:40:48;;;;;;;0.47;0.47;;;;;;;17.64;100.00;99392.25;5070628;28;20220;-62
2023/06/29 00:43:15;;;;;;;0.60;0.60;;;;;;;17.63;100.00;99385.38;5071037;28;20207;-62
2023/06/29 00:45:41;;;;;;;0.43;0.43;;;;;;;17.60;100.00;99391.59;5070835;28;20583;-62
2023/06/29 00:48:08;;;;;;;0.40;0.40;;;;;;;17.59;100.00;99389.91;5070954;28;20207;-62
2023/06/29 00:50:36;;;;;;;0.70;0.70;;;;;;;17.46;100.00;99388.91;5070949;28;20195;-62
2023/06/29 00:53:02;;;;;;;0.60;0.60;;;;;;;17.51;100.00;99392.06;5070696;28;20196;-62
2023/06/29 00:55:29;;;;;;;0.47;0.47;;;;;;;17.58;100.00;99395.16;5066963;28;20192;-62
2023/06/29 00:57:57;;;;;;;0.60;0.60;;;;;;;17.51;100.00;99392.06;5070724;28;20196;-61
2023/06/29 01:00:24;;;;;;;0.50;0.50;;;;;;;17.52;100.00;99392.91;5070849;28;20627;-62
2023/06/29 01:02:51;;;;;;;1.60;0.63;;;;;;;17.52;100.00;99404.09;5070944;28;20215;-62
2023/06/29 01:05:19;;;;;;;0.57;0.57;;;;;;;17.39;100.00;99395.38;5070684;28;20203;-62
2023/06/29 01:07:51;;;;;;;0.60;0.60;;;;;;;17.25;100.00;99390.97;5070670;28;20192;-61
2023/06/29 01:10:22;;;;;;;0.80;0.80;;;;;;;17.11;100.00;99408.25;5070843;28;20200;-61
2023/06/29 01:12:50;;;;;;;0.47;0.47;;;;;;;17.07;100.00;99406.75;5070620;28;20203;-61
2023/06/29 01:15:19;;;;;;;0.90;0.90;;;;;;;17.05;100.00;99403.41;5070629;28;20212;-61
2023/06/29 01:17:50;;;;;;;0.40;0.40;;;;;;;17.02;100.00;99407.03;5070589;28;20245;-62
2023/06/29 01:20:18;;;;;;;0.70;0.70;;;;;;;16.82;100.00;99383.16;5070477;28;20216;-62
2023/06/29 01:22:55;;;;;;;0.33;0.33;;;;;;;17.08;100.00;99413.59;5070820;28;20199;-61
2023/06/29 01:25:24;;;;;;;0.40;0.40;;;;;;;17.03;100.00;99385.34;5069323;28;20679;-61
2023/06/29 01:27:50;;;;;;;0.73;0.47;;;;;;;17.02;100.00;99383.72;5074041;28;20204;-61
2023/06/29 01:30:18;;;;;;;0.47;0.47;;;;;;;16.93;100.00;99386.00;5074194;28;20192;-62
2023/06/29 01:32:44;;;;;;;0.67;0.67;;;;;;;16.85;100.00;99376.06;5074270;28;20200;-61
2023/06/29 01:35:12;;;;;;;0.53;0.53;;;;;;;16.76;100.00;99351.53;5073044;28;20575;-61
2023/06/29 01:37:45;;;;;;;0.40;0.40;;;;;;;16.84;100.00;99368.34;5074271;28;20665;-61
2023/06/29 01:40:16;;;;;;;0.40;0.40;;;;;;;16.82;100.00;99370.22;5073816;28;20212;-62
2023/06/29 01:42:45;;;;;;;0.40;0.40;;;;;;;16.83;100.00;99359.78;5074007;28;20200;-61
2023/06/29 01:45:13;;;;;;;0.70;0.70;;;;;;;16.84;100.00;99394.25;5073843;28;20199;-62
2023/06/29 01:47:40;;;;;;;0.47;0.47;;;;;;;16.84;100.00;99404.59;5073933;28;20291;-61
2023/06/29 01:50:08;;;;;;;0.40;0.40;;;;;;;16.83;100.00;99410.72;5073656;28;20191;-62
2023/06/29 01:52:35;;;;;;;0.43;0.43;;;;;;;16.84;100.00;99420.13;5073923;28;20663;-62
2023/06/29 01:55:02;;;;;;;0.70;0.70;;;;;;;16.83;100.00;99413.31;5073482;28;20200;-62
2023/06/29 01:57:29;;;;;;;0.40;0.40;;;;;;;16.83;100.00;99400.38;5073593;28;20196;-61
2023/06/29 01:59:57;;;;;;;0.50;0.50;;;;;;;16.81;100.00;99369.38;5073489;28;20277;-62
2023/06/29 02:02:24;;;;;;;0.40;0.40;;;;;;;16.79;100.00;99369.47;5073421;28;20212;-62
2023/06/29 02:04:51;;;;;;;0.77;0.77;;;;;;;16.72;100.00;99365.53;5073683;28;20203;-62
2023/06/29 02:07:17;;;;;;;0.40;0.40;;;;;;;16.77;100.00;99392.00;5073288;28;20203;-61
2023/06/29 02:09:44;;;;;;;0.50;0.50;;;;;;;16.72;100.00;99388.84;5073451;28;20196;-61
2023/06/29 02:12:13;;;;;;;0.50;0.50;;;;;;;16.73;100.00;99382.75;5073169;28;20196;-62
2023/06/29 02:14:40;;;;;;;0.30;0.30;;;;;;;16.64;100.00;99383.25;5073360;28;20200;-61
2023/06/29 02:17:08;;;;;;;0.40;0.40;;;;;;;16.66;100.00;99381.41;5073375;28;20200;-62
2023/06/29 02:19:35;;;;;;;0.50;0.50;;;;;;;16.68;100.00;99384.75;5073318;28;20196;-62
2023/06/29 02:22:02;;;;;;;0.30;0.30;;;;;;;16.62;100.00;99379.91;5073061;28;20214;-62
2023/06/29 02:24:28;;;;;;;0.60;0.60;;;;;;;16.59;100.00;99385.25;5073088;28;20200;-61
2023/06/29 02:26:55;;;;;;;0.30;0.30;;;;;;;16.52;100.00;99381.31;5069099;28;20257;-61
2023/06/29 02:29:22;;;;;;;0.40;0.40;;;;;;;16.56;100.00;99385.44;5072901;28;20220;-62
2023/06/29 02:31:49;;;;;;;0.47;0.47;;;;;;;16.56;100.00;99390.59;5073279;28;20278;-62
2023/06/29 02:34:17;;;;;;;0.50;0.50;;;;;;;16.54;100.00;99378.66;5072777;28;20200;-62
2023/06/29 02:36:44;;;;;;;0.30;0.30;;;;;;;16.58;100.00;99382.75;5072667;28;20579;-61
2023/06/29 02:39:11;;;;;;;0.50;0.50;;;;;;;16.61;100.00;99388.59;5072605;28;20630;-62
2023/06/29 02:41:38;;;;;;;0.50;0.50;;;;;;;16.60;100.00;99380.94;5072405;28;20212;-61
2023/06/29 02:44:05;;;;;;;0.50;0.50;;;;;;;16.63;100.00;99381.59;5073207;28;20660;-62
2023/06/29 02:46:31;;;;;;;0.80;0.80;;;;;;;16.62;100.00;99390.25;5072728;28;20667;-62
2023/06/29 02:48:58;;;;;;;0.67;0.67;;;;;;;16.66;100.00;99386.59;5072687;28;20257;-61
2023/06/29 02:51:26;;;;;;;0.40;0.40;;;;;;;16.63;100.00;99381.59;5072498;28;20258;-62
2023/06/29 02:53:53;;;;;;;0.53;0.53;;;;;;;16.67;100.00;99375.31;5072690;28;20254;-61
2023/06/29 02:56:20;;;;;;;0.53;0.53;;;;;;;16.65;100.00;99364.22;5072364;28;20200;-61
2023/06/29 02:58:46;;;;;;;0.33;0.33;;;;;;;16.69;100.00;99376.06;5072597;28;20200;-61
2023/06/29 03:01:13;;;;;;;0.40;0.40;;;;;;;16.69;100.00;99391.59;5072321;28;20219;-61
2023/06/29 03:03:40;;;;;;;0.50;0.50;;;;;;;16.64;100.00;99393.59;5072275;28;20200;-62
2023/06/29 03:06:07;;;;;;;0.50;0.50;;;;;;;16.65;100.00;99384.09;5068544;28;20199;-61
2023/06/29 03:08:35;;;;;;;0.63;0.63;;;;;;;16.67;100.00;99375.31;5072150;28;20671;-62
2023/06/29 03:11:01;;;;;;;0.60;0.60;;;;;;;16.70;100.00;99388.06;5072517;28;20211;-62
2023/06/29 03:13:28;;;;;;;0.60;0.60;;;;;;;16.66;100.00;99391.78;5072363;28;20557;-62
2023/06/29 03:15:59;;;;;;;0.80;0.80;;;;;;;16.66;100.00;99393.53;5072316;28;20573;-61
2023/06/29 03:18:25;;;;;;;0.60;0.60;;;;;;;16.70;100.00;99393.25;5072129;28;20195;-61
2023/06/29 03:20:52;;;;;;;0.40;0.40;;;;;;;16.63;100.00;99376.41;5071941;28;20219;-61
2023/06/29 03:23:19;;;;;;;0.50;0.50;;;;;;;16.61;100.00;99367.03;5072026;28;20204;-62
2023/06/29 03:25:48;;;;;;;0.57;0.57;;;;;;;16.76;100.00;99389.50;5071979;28;20204;-62
2023/06/29 03:28:14;;;;;;;0.47;0.47;;;;;;;16.79;100.00;99381.56;5072183;28;20677;-62
2023/06/29 03:30:41;;;;;;;0.57;0.57;;;;;;;16.82;100.00;99386.59;5071633;28;20203;-61
2023/06/29 03:33:08;;;;;;;0.60;0.60;;;;;;;16.87;100.00;99394.91;5071904;28;20229;-62
2023/06/29 03:35:35;;;;;;;0.40;0.40;;;;;;;16.86;100.00;99389.84;5071583;28;20200;-62
2023/06/29 03:38:02;;;;;;;0.37;0.37;;;;;;;16.89;100.00;99400.88;5071815;28;20660;-61
2023/06/29 03:40:29;;;;;;;0.57;0.57;;;;;;;16.90;100.00;99399.13;5071571;28;20200;-62
2023/06/29 03:42:57;;;;;;;0.40;0.40;;;;;;;16.97;100.00;99400.41;5071430;28;20204;-61
2023/06/29 03:45:24;;;;;;;0.50;0.50;;;;;;;17.01;100.00;99397.56;5071764;28;20200;-61
2023/06/29 03:47:50;;;;;;;0.40;0.40;;;;;;;17.03;100.00;99405.25;5070851;28;20200;-61
2023/06/29 03:50:18;;;;;;;0.50;0.50;;;;;;;17.08;100.00;99411.00;5071512;28;20204;-62
2023/06/29 03:52:45;;;;;;;0.60;0.60;;;;;;;17.11;100.00;99413.44;5071419;28;20214;-62
2023/06/29 03:55:11;;;;;;;0.50;0.50;;;;;;;17.12;100.00;99410.75;5071715;28;20223;-62
2023/06/29 03:57:38;;;;;;;0.40;0.40;;;;;;;17.11;100.00;99413.44;5071558;28;20196;-62
2023/06/29 04:00:08;;;;;;;0.30;0.30;;;;;;;17.13;100.00;99419.34;5071550;28;20199;-62
2023/06/29 04:02:35;;;;;;;0.57;0.57;;;;;;;17.11;100.00;99408.25;5071274;28;20207;-62
2023/06/29 04:05:02;;;;;;;0.50;0.50;;;;;;;17.16;100.00;99416.59;5071193;28;20204;-62
2023/06/29 04:07:29;;;;;;;0.47;0.47;;;;;;;17.19;100.00;99412.06;5071336;28;20215;-61
2023/06/29 04:09:55;;;;;;;0.53;0.53;;;;;;;17.21;100.00;99424.94;5071412;28;20660;-61
2023/06/29 04:12:22;;;;;;;0.40;0.40;;;;;;;17.22;100.00;99422.25;5071232;28;20196;-61
2023/06/29 04:14:49;;;;;;;0.60;0.60;;;;;;;17.29;100.00;99438.28;5071328;28;20674;-62
2023/06/29 04:17:17;;;;;;;0.40;0.40;;;;;;;17.34;100.00;99441.47;5071121;28;20249;-62
2023/06/29 04:19:44;;;;;;;0.63;0.63;;;;;;;17.32;100.00;99443.28;5071275;28;20737;-62
2023/06/29 04:22:11;;;;;;;0.60;0.60;;;;;;;17.33;100.00;99434.59;5071264;28;20216;-62
2023/06/29 04:24:37;;;;;;;0.50;0.50;;;;;;;17.45;100.00;99444.25;5071163;28;20638;-61
2023/06/29 04:27:05;;;;;;;0.50;0.50;;;;;;;17.55;100.00;99440.25;5070923;28;20204;-61
2023/06/29 04:29:32;;;;;;;0.60;0.60;;;;;;;17.63;100.00;99438.06;5071476;28;20234;-62
2023/06/29 04:31:58;;;;;;;0.40;0.40;;;;;;;17.73;100.00;99441.78;5070754;28;20200;-62
2023/06/29 04:34:27;;;;;;;0.70;0.70;;;;;;;17.76;100.00;99439.00;5071405;28;20556;-62
2023/06/29 04:36:56;;;;;;;0.50;0.50;;;;;;;17.82;100.00;99443.84;5070962;28;20215;-62
2023/06/29 04:39:23;;;;;;;0.40;0.40;;;;;;;17.78;100.00;99437.16;5071036;28;20192;-62
2023/06/29 04:42:00;;;;;;;0.47;0.47;;;;;;;17.90;100.00;99450.34;5070693;28;20216;-62
2023/06/29 04:44:31;;;;;;;0.50;0.50;;;;;;;17.94;100.00;99446.63;5070885;28;20203;-61
2023/06/29 04:46:59;;;;;;;0.40;0.40;;;;;;;17.96;100.00;99462.94;5071044;28;20576;-62
2023/06/29 04:49:31;;;;;;;0.40;0.40;;;;;;;17.94;100.00;99449.22;5070959;28;20242;-62
2023/06/29 04:51:59;;;;;;;0.50;0.50;;;;;;;17.95;100.00;99459.50;5070915;28;20200;-62
2023/06/29 04:54:26;;;;;;;0.70;0.70;;;;;;;17.99;100.00;99458.41;5070885;28;20630;-62
2023/06/29 04:56:53;;;;;;;0.40;0.40;;;;;;;18.05;100.00;99454.59;5070853;28;20279;-62
2023/06/29 04:59:23;;;;;;;0.60;0.60;;;;;;;18.04;100.00;99442.56;5071422;28;20203;-62
2023/06/29 05:01:51;;;;;;;0.50;0.50;;;;;;;18.10;100.00;99448.22;5074650;28;20247;-61
2023/06/29 05:04:18;;;;;;;0.50;0.50;;;;;;;18.12;100.00;99461.09;5074637;28;20192;-61
2023/06/29 05:06:46;;;;;;;0.47;0.47;;;;;;;18.09;100.00;99472.50;5074881;28;20196;-61
2023/06/29 05:09:15;;;;;;;0.50;0.50;;;;;;;18.08;100.00;99475.19;5074482;28;20660;-62
2023/06/29 05:11:42;;;;;;;0.57;0.57;;;;;;;18.06;100.00;99472.66;5074888;28;20196;-62
2023/06/29 05:14:09;;;;;;;0.27;0.27;;;;;;;18.01;100.00;99484.25;5074520;28;20533;-63
2023/06/29 05:16:36;;;;;;;0.80;0.80;;;;;;;17.98;100.00;99484.41;5074510;28;20192;-61
2023/06/29 05:19:03;;;;;;;0.50;0.50;;;;;;;17.96;100.00;99475.91;5074383;28;20200;-62
2023/06/29 05:21:30;;;;;;;0.40;0.40;;;;;;;18.01;100.00;99479.06;5074320;28;20219;-62
2023/06/29 05:23:58;;;;;;;0.40;0.40;;;;;;;17.99;100.00;99491.28;5074351;28;20277;-62
2023/06/29 05:26:25;;;;;;;0.53;0.53;;;;;;;18.05;100.00;99485.75;5074247;28;20203;-62
2023/06/29 05:28:52;;;;;;;0.50;0.50;;;;;;;18.31;100.00;99472.03;5073905;28;20239;-62
2023/06/29 05:31:19;;;;;;;0.57;0.57;;;;;;;18.52;100.00;99481.13;5074037;28;20203;-62
2023/06/29 05:33:45;;;;;;;0.43;0.43;;;;;;;18.85;100.00;99479.06;5074237;28;20200;-62
2023/06/29 05:36:12;;;;;;;0.70;0.70;;;;;;;19.17;100.00;99473.56;5073885;28;20545;-62
2023/06/29 05:38:40;;;;;;;0.40;0.40;;;;;;;19.46;100.00;99475.16;5073972;28;20197;-62
2023/06/29 05:41:08;;;;;;;0.60;0.60;;;;;;;19.74;100.00;99479.41;5073709;28;20201;-62
2023/06/29 05:43:35;;;;;;;0.40;0.40;;;;;;;19.98;100.00;99482.13;5074356;28;20235;-62
2023/06/29 05:46:02;;;;;;;0.40;0.40;;;;;;;20.22;100.00;99475.25;5074044;28;20203;-61
2023/06/29 05:48:29;;;;;;;0.30;0.30;;;;;;;20.52;100.00;99478.38;5073653;28;20292;-62
2023/06/29 05:50:56;;;;;;;0.30;0.30;;;;;;;20.59;100.00;99484.81;5073757;28;20201;-62
2023/06/29 05:53:22;;;;;;;0.50;0.50;;;;;;;20.80;100.00;99488.53;5073579;28;20193;-62
2023/06/29 05:55:49;;;;;;;0.67;0.67;;;;;;;20.88;99.29;99475.78;5073974;28;20211;-62
2023/06/29 05:58:17;;;;;;;0.70;0.70;;;;;;;20.99;99.09;99472.41;5073486;28;20202;-62
2023/06/29 06:00:44;;;;;;;0.70;0.70;;;;;;;21.15;99.52;99480.84;5073655;28;20199;-62
2023/06/29 06:03:12;;;;;;;1.00;0.93;;;;;;;21.31;100.00;99477.94;5073577;28;20305;-62
2023/06/29 06:05:40;;;;;;;0.40;0.40;;;;;;;21.49;96.92;99471.38;5073432;28;20213;-62
2023/06/29 06:08:07;;;;;;;0.40;0.40;;;;;;;21.72;95.95;99483.53;5073771;28;20223;-62
2023/06/29 06:10:33;;;;;;;0.40;0.40;;;;;;;21.93;95.11;99482.00;5073320;28;20577;-61
2023/06/29 06:13:02;;;;;;;0.50;0.50;;;;;;;22.16;94.99;99476.78;5072900;28;20199;-61
2023/06/29 06:15:30;;;;;;;0.60;0.60;;;;;;;22.23;92.19;99478.81;5073158;28;20204;-62
2023/06/29 06:17:57;;;;;;;0.47;0.47;;;;;;;22.15;92.56;99472.50;5073293;28;20199;-63
2023/06/29 06:20:24;;;;;;;0.73;0.60;;;;;;;22.15;91.64;99480.34;5073040;28;20204;-62
2023/06/29 06:22:51;;;;;;;0.60;0.60;;;;;;;22.32;92.45;99466.84;5073212;28;20212;-61
2023/06/29 06:25:18;;;;;;;0.70;0.70;;;;;;;22.58;90.35;99472.66;5073216;28;20196;-62
2023/06/29 06:27:44;;;;;;;0.57;0.57;;;;;;;22.72;87.86;99472.41;5073160;28;20215;-62
2023/06/29 06:30:12;;;;;;;0.70;0.70;;;;;;;22.97;87.31;99465.09;5072668;28;20199;-62
2023/06/29 06:32:40;;;;;;;0.30;0.30;;;;;;;23.04;84.83;99465.44;5072925;28;20193;-63
2023/06/29 06:35:08;;;;;;;0.50;0.50;;;;;;;23.31;87.68;99462.41;5073415;28;20721;-62
2023/06/29 06:37:35;;;;;;;0.90;0.90;;;;;;;23.49;83.96;99461.75;5073028;28;20679;-62
2023/06/29 06:40:03;;;;;;;0.77;0.77;;;;;;;23.34;82.42;99451.69;5073037;28;20213;-62
2023/06/29 06:42:29;;;;;;;0.40;0.40;;;;;;;23.48;83.45;99465.34;5072732;28;20220;-62
2023/06/29 06:44:56;;;;;;;0.27;0.27;;;;;;;23.51;84.00;99459.00;5073014;28;20209;-62
2023/06/29 06:47:23;;;;;;;0.47;0.47;;;;;;;23.72;85.53;99453.78;5072461;28;20204;-62
2023/06/29 06:49:51;;;;;;;0.47;0.47;;;;;;;23.93;83.87;99460.69;5069998;28;20683;-62
2023/06/29 06:52:18;;;;;;;0.50;0.50;;;;;;;23.91;80.37;99453.91;5072463;28;20203;-63
2023/06/29 06:54:45;;;;;;;0.60;0.60;;;;;;;24.13;83.49;99453.78;5072279;28;20210;-63
2023/06/29 06:57:12;;;;;;;0.57;0.40;;;;;;;24.45;82.19;99448.41;5072618;28;20199;-62
2023/06/29 06:59:38;;;;;;;0.47;0.47;;;;;;;24.73;76.84;99466.00;5072387;28;20561;-63
2023/06/29 07:02:06;;;;;;;0.50;0.50;;;;;;;24.79;75.86;99456.78;5072261;28;20270;-63
2023/06/29 07:04:33;;;;;;;0.40;0.40;;;;;;;24.91;72.70;99464.41;5072565;28;20646;-62
2023/06/29 07:07:01;;;;;;;0.50;0.50;;;;;;;24.92;74.85;99445.09;5072572;28;20203;-62
2023/06/29 07:09:28;;;;;;;0.60;0.60;;;;;;;24.85;76.06;99453.63;5072491;28;20196;-62
2023/06/29 07:11:55;;;;;;;0.60;0.60;;;;;;;24.78;75.89;99457.75;5072437;28;20196;-61
2023/06/29 07:14:22;;;;;;;0.97;0.70;;;;;;;24.88;73.99;99458.63;5072218;28;20645;-62
2023/06/29 07:16:49;;;;;;;0.60;0.60;;;;;;;24.84;75.70;99459.88;5072372;28;20587;-61
2023/06/29 07:19:16;;;;;;;0.60;0.50;;;;;;;25.12;73.80;99460.88;5072458;28;20663;-63
2023/06/29 07:21:43;;;;;;;0.40;0.40;;;;;;;25.50;69.77;99463.53;5072111;28;20673;-63
2023/06/29 07:24:12;;;;;;;1.07;0.40;;;;;;;25.58;71.45;99453.16;5071481;28;20203;-62
2023/06/29 07:26:39;;;;;;;0.60;0.60;;;;;;;25.84;70.18;99472.63;5071953;28;20553;-63
2023/06/29 07:29:06;;;;;;;0.60;0.60;;;;;;;26.02;69.28;99463.03;5071794;28;20227;-63
2023/06/29 07:31:33;;;;;;;0.40;0.40;;;;;;;26.32;70.76;99458.53;5071995;28;20207;-63
2023/06/29 07:34:00;;;;;;;1.13;0.53;;;;;;;26.48;70.72;99462.22;5071757;28;20588;-62
2023/06/29 07:36:29;;;;;;;0.47;0.47;;;;;;;26.57;67.63;99458.69;5072318;28;20207;-63
2023/06/29 07:38:56;;;;;;;0.40;0.40;;;;;;;26.66;67.58;99462.25;5070759;28;20204;-62
2023/06/29 07:41:24;;;;;;;0.50;0.50;;;;;;;26.71;68.44;99457.38;5072095;28;20254;-63
2023/06/29 07:43:53;;;;;;;0.47;0.47;;;;;;;26.83;67.07;99463.28;5071450;28;20220;-63
2023/06/29 07:46:19;;;;;;;0.70;0.70;;;;;;;26.85;64.31;99462.16;5071642;28;20206;-62
2023/06/29 07:48:47;;;;;;;1.60;0.60;;;;;;;26.90;66.53;99464.38;5071546;28;20204;-63
2023/06/29 07:51:14;;;;;;;0.40;0.40;;;;;;;26.68;68.96;99464.75;5072044;28;20219;-62
2023/06/29 07:53:41;;;;;;;0.40;0.40;;;;;;;26.71;65.49;99465.28;5071510;28;20195;-62
2023/06/29 07:56:08;;;;;;;0.40;0.40;;;;;;;26.83;64.62;99458.88;5071675;28;20803;-62
2023/06/29 07:58:36;;;;;;;0.70;0.70;;;;;;;27.06;63.55;99457.47;5071437;28;20207;-62
2023/06/29 08:01:03;;;;;;;0.60;0.60;;;;;;;27.25;63.08;99460.94;5071371;28;20196;-62
2023/06/29 08:03:30;;;;;;;0.70;0.70;;;;;;;27.16;65.35;99453.94;5071733;28;20658;-63
2023/06/29 08:05:57;;;;;;;0.50;0.50;;;;;;;27.24;65.16;99461.94;5071274;28;20658;-62
2023/06/29 08:08:28;;;;;;;1.23;0.60;;;;;;;27.00;63.05;99454.59;5071409;28;20203;-62
2023/06/29 08:10:55;;;;;;;0.33;0.33;;;;;;;26.99;66.38;99459.03;5071209;28;20208;-63
2023/06/29 08:13:23;;;;;;;0.40;0.40;;;;;;;27.18;64.90;99457.22;5071453;28;20192;-61
2023/06/29 08:15:51;;;;;;;0.40;0.40;;;;;;;27.44;66.99;99453.72;5071141;28;20218;-61
2023/06/29 08:18:18;;;;;;;0.40;0.40;;;;;;;27.48;62.50;99456.88;5071310;28;20223;-62
2023/06/29 08:20:46;;;;;;;0.53;0.53;;;;;;;27.64;59.87;99454.38;5071545;28;20273;-62
2023/06/29 08:23:13;;;;;;;0.50;0.50;;;;;;;27.52;64.06;99450.34;5070997;28;20247;-62
2023/06/29 08:25:40;;;;;;;0.30;0.30;;;;;;;27.37;60.34;99457.91;5071326;28;20274;-62
2023/06/29 08:28:07;;;;;;;1.80;0.50;;;;;;;27.26;61.02;99454.69;5071277;28;20223;-62
2023/06/29 08:30:34;;;;;;;0.40;0.40;;;;;;;27.26;62.70;99455.53;5071529;28;20632;-63
2023/06/29 08:33:02;;;;;;;0.53;0.53;;;;;;;27.42;62.65;99449.56;5071105;28;20667;-61
2023/06/29 08:35:29;;;;;;;0.30;0.30;;;;;;;27.50;60.04;99447.84;5070852;28;20196;-62
2023/06/29 08:37:56;;;;;;;0.40;0.40;;;;;;;27.53;60.25;99446.72;5071291;28;20196;-62
2023/06/29 08:40:23;;;;;;;0.40;0.40;;;;;;;27.72;61.62;99446.56;5071347;28;20200;-62
2023/06/29 08:42:51;;;;;;;0.47;0.47;;;;;;;27.81;61.28;99453.53;5070996;28;20220;-62
2023/06/29 08:45:19;;;;;;;0.30;0.30;;;;;;;27.71;60.03;99438.78;5070874;28;20212;-62
2023/06/29 08:47:49;;;;;;;0.50;0.50;;;;;;;27.76;61.25;99439.97;5071026;28;20203;-62
2023/06/29 08:50:20;;;;;;;0.40;0.40;;;;;;;27.92;59.95;99437.44;5071456;28;20207;-62
2023/06/29 08:52:48;;;;;;;0.50;0.50;;;;;;;27.97;59.48;99435.19;5067252;28;20196;-62
2023/06/29 08:55:15;;;;;;;0.50;0.50;;;;;;;28.01;62.84;99433.06;5071346;28;20207;-62
2023/06/29 08:57:42;;;;;;;0.30;0.30;;;;;;;28.27;63.36;99426.00;5071037;28;20204;-62
2023/06/29 09:00:10;;;;;;;0.50;0.50;;;;;;;28.51;59.15;99428.72;5070919;28;20200;-62
2023/06/29 09:02:37;;;;;;;0.37;0.37;;;;;;;28.25;61.20;99432.38;5070943;28;20219;-62
2023/06/29 09:05:05;;;;;;;0.43;0.43;;;;;;;27.97;59.27;99424.66;5070775;28;20231;-62
2023/06/29 09:07:33;;;;;;;0.60;0.60;;;;;;;28.06;59.48;99415.81;5071128;28;20690;-63
2023/06/29 09:10:01;;;;;;;0.50;0.50;;;;;;;27.79;57.46;99415.94;5071114;28;20245;-62
2023/06/29 09:12:28;;;;;;;0.50;0.50;;;;;;;27.88;60.41;99425.59;5070473;28;20652;-62
2023/06/29 09:14:57;;;;;;;0.60;0.60;;;;;;;27.69;58.77;99409.97;5070791;28;20203;-62
2023/06/29 09:17:23;;;;;;;0.50;0.50;;;;;;;27.98;57.83;99417.56;5070724;28;20204;-63
2023/06/29 09:19:55;;;;;;;0.40;0.40;;;;;;;27.99;59.35;99396.31;5070768;28;20269;-62
2023/06/29 09:22:22;;;;;;;0.30;0.30;;;;;;;28.02;61.11;99422.34;5070636;28;20196;-62
2023/06/29 09:24:55;;;;;;;0.30;0.30;;;;;;;28.14;59.27;99421.13;5071172;28;20694;-62
2023/06/29 09:27:22;;;;;;;0.50;0.50;;;;;;;28.08;58.43;99416.50;5070603;28;20250;-62
2023/06/29 09:29:53;;;;;;;0.50;0.50;;;;;;;28.29;57.81;99417.91;5070513;28;20224;-62
2023/06/29 09:32:21;;;;;;;0.52;0.52;;;;;;;28.56;54.62;99423.78;5070400;28;20254;-62
2023/06/29 09:34:48;;;;;;;0.50;0.50;;;;;;;28.73;57.10;99416.75;5070816;28;20200;-63
2023/06/29 09:37:16;;;;;;;0.40;0.40;;;;;;;28.81;55.80;99411.53;5070600;28;20744;-62
2023/06/29 09:39:58;;;;;;;0.30;0.30;;;;;;;29.00;54.60;99416.50;5070580;28;20191;-62
2023/06/29 09:42:29;;;;;;;0.57;0.57;;;;;;;29.13;54.35;99414.22;5070354;28;20616;-62
2023/06/29 09:45:00;;;;;;;1.38;1.02;;;;;;;29.03;53.92;99408.25;5070584;28;20288;-62
2023/06/29 09:47:26;;;;;;;0.40;0.40;;;;;;;28.83;58.00;99403.44;5072762;28;20214;-63
2023/06/29 09:49:53;;;;;;;0.43;0.43;;;;;;;28.91;57.70;99404.28;5074048;28;20204;-63
2023/06/29 09:52:21;;;;;;;0.50;0.50;;;;;;;28.85;55.87;99399.66;5073865;28;20250;-63
2023/06/29 09:54:49;;;;;;;0.40;0.40;;;;;;;28.61;55.65;99397.75;5074006;28;20660;-63
2023/06/29 09:57:19;;;;;;;0.40;0.40;;;;;;;28.66;57.13;99397.28;5074300;28;20231;-62
2023/06/29 09:59:46;;;;;;;0.30;0.30;;;;;;;28.84;54.85;99405.91;5073909;28;20196;-63
2023/06/29 10:02:13;;;;;;;0.50;0.50;;;;;;;29.02;52.26;99401.31;5073705;28;20231;-62
2023/06/29 10:04:42;;;;;;;0.40;0.40;;;;;;;29.17;51.55;99390.94;5073419;28;20223;-63
2023/06/29 10:07:11;;;;;;;0.28;0.28;;;;;;;29.12;51.98;99367.66;5074003;28;20200;-63
2023/06/29 10:09:41;;;;;;;1.33;0.50;;;;;;;29.08;53.48;99398.00;5072782;28;20682;-62
2023/06/29 10:12:11;;;;;;;1.17;0.50;;;;;;;29.14;49.52;99394.72;5073954;28;20279;-62
2023/06/29 10:14:44;;;;;;;0.38;0.38;;;;;;;29.30;54.41;99395.75;5072253;28;20208;-62
2023/06/29 10:17:16;;;;;;;0.40;0.40;;;;;;;29.22;52.63;99364.84;5073716;28;20227;-62
2023/06/29 10:19:45;;;;;;;0.30;0.30;;;;;;;29.27;51.60;99382.88;5073753;28;20196;-62
2023/06/29 10:22:15;;;;;;;0.30;0.30;;;;;;;29.48;55.42;99380.56;5069961;28;20196;-62
2023/06/29 10:24:48;;;;;;;0.85;0.35;;;;;;;29.45;54.78;99367.69;5072370;28;20231;-62
2023/06/29 10:27:16;;;;;;;0.30;0.30;;;;;;;29.49;50.67;99382.22;5073561;28;20284;-63
2023/06/29 10:29:45;;;;;;;0.50;0.50;;;;;;;29.39;49.65;99377.09;5071981;28;20706;-63
2023/06/29 10:32:31;;;;;;;0.50;0.50;;;;;;;29.24;56.21;99377.91;5067948;28;20558;-62
2023/06/29 10:35:03;;;;;;;0.52;0.52;;;;;;;29.38;56.50;99379.91;5071187;28;20565;-62
2023/06/29 10:37:31;;;;;;;0.40;0.40;;;;;;;29.57;50.15;99359.25;5073109;28;20253;-63
2023/06/29 10:39:58;;;;;;;0.50;0.50;;;;;;;29.59;51.70;99351.16;5072855;28;20295;-62
2023/06/29 10:42:56;;;;;;;1.23;1.23;;;;;;;29.66;52.22;99378.56;5073165;28;20275;-63
2023/06/29 10:45:35;;;;;;;0.60;0.60;;;;;;;29.58;50.94;99375.91;5069862;28;20215;-62
2023/06/29 10:48:04;;;;;;;0.40;0.40;;;;;;;29.28;49.53;99347.56;5073081;28;20695;-63
2023/06/29 10:50:31;;;;;;;0.30;0.30;;;;;;;29.48;49.90;99362.88;5072763;28;20200;-63
2023/06/29 10:53:00;;;;;;;0.60;0.60;;;;;;;29.48;50.33;99376.09;5072356;28;20793;-62
2023/06/29 10:55:28;;;;;;;0.30;0.30;;;;;;;29.49;47.60;99371.66;5073118;28;20289;-63
2023/06/29 10:57:57;;;;;;;0.30;0.30;;;;;;;29.69;50.35;99367.66;5072403;28;20211;-62
2023/06/29 11:00:25;;;;;;;0.30;0.30;;;;;;;29.64;48.24;99348.81;5072883;28;20202;-63
2023/06/29 11:02:54;;;;;;;0.40;0.40;;;;;;;29.69;46.62;99352.59;5068541;28;20196;-63
2023/06/29 11:05:22;;;;;;;0.32;0.32;;;;;;;29.79;50.75;99352.41;5072667;28;20207;-63
2023/06/29 11:07:50;;;;;;;0.30;0.30;;;;;;;29.86;48.16;99355.22;5072414;28;20207;-63
2023/06/29 11:10:20;;;;;;;0.22;0.22;;;;;;;29.90;51.22;99357.38;5072715;28;20642;-63
2023/06/29 11:12:48;;;;;;;0.30;0.30;;;;;;;29.76;42.65;99352.75;5072524;28;20745;-63
2023/06/29 11:15:17;;;;;;;0.25;0.25;;;;;;;29.58;44.70;99360.06;5072510;28;20274;-62
2023/06/29 11:17:44;;;;;;;0.45;0.45;;;;;;;29.61;43.87;99359.72;5072252;28;20246;-62
2023/06/29 11:20:14;;;;;;;0.20;0.20;;;;;;;29.55;44.92;99352.47;5072254;28;20606;-62
2023/06/29 11:22:41;;;;;;;0.35;0.35;;;;;;;29.50;49.36;99336.31;5072547;28;20607;-63
2023/06/29 11:25:09;;;;;;;0.40;0.40;;;;;;;29.71;42.17;99344.50;5069683;28;20219;-63
2023/06/29 11:27:36;;;;;;;0.30;0.30;;;;;;;29.93;47.19;99338.53;5072262;28;20196;-62
2023/06/29 11:30:07;;;;;;;0.30;0.30;;;;;;;30.23;42.05;99338.72;5071885;28;20303;-62
2023/06/29 11:32:34;;;;;;;0.55;0.30;;;;;;;30.36;41.94;99339.00;5072313;28;20203;-63